Time;durP1;ratioP1;P1;durP2;ratioP2;P2;SDS_P1;SDS_P2;PMS_P1;PMS_P2;Temp;Humidity;BMP_temperature;BMP_pressure;BME280_temperature;BME280_humidity;BME280_pressure;Samples;Min_cycle;Max_cycle;Signal;HPM_P1;HPM_P2
2022/09/11 00:01:54;;;;;;;5.30;4.00;;;;;;;14.54;100.00;99210.38;5113314;28;20039;-78
2022/09/11 00:04:19;;;;;;;4.22;3.75;;;;;;;14.47;100.00;99202.06;5113836;28;20361;-78
2022/09/11 00:06:45;;;;;;;7.28;4.28;;;;;;;14.41;100.00;99199.88;5113722;28;20027;-78
2022/09/11 00:09:10;;;;;;;5.13;3.78;;;;;;;14.42;100.00;99218.13;5114161;27;20026;-78
2022/09/11 00:11:41;;;;;;;4.68;3.80;;;;;;;14.36;100.00;99207.22;5113840;28;20031;-79
2022/09/11 00:14:09;;;;;;;3.88;3.47;;;;;;;14.26;100.00;99203.56;5113934;28;20035;-78
2022/09/11 00:16:37;;;;;;;4.38;3.83;;;;;;;14.27;100.00;99215.72;5113644;28;20042;-78
2022/09/11 00:19:06;;;;;;;5.13;3.63;;;;;;;14.22;100.00;99211.63;5128628;27;20039;-78
2022/09/11 00:21:32;;;;;;;4.15;3.35;;;;;;;14.19;100.00;99211.84;5113470;28;20046;-78
2022/09/11 00:23:57;;;;;;;5.75;3.35;;;;;;;14.25;100.00;99218.44;5113942;28;20444;-78
2022/09/11 00:26:24;;;;;;;3.88;3.45;;;;;;;14.25;100.00;99213.22;5113654;28;20019;-78
2022/09/11 00:28:51;;;;;;;12.02;4.60;;;;;;;14.22;100.00;99210.78;5113473;28;20034;-78
2022/09/11 00:31:22;;;;;;;4.90;3.42;;;;;;;14.23;100.00;99204.59;5113514;27;20027;-78
2022/09/11 00:33:47;;;;;;;8.77;3.67;;;;;;;14.26;100.00;99208.81;5113139;28;20106;-78
2022/09/11 00:36:18;;;;;;;4.13;3.60;;;;;;;14.29;100.00;99206.81;5113627;28;20123;-78
2022/09/11 00:38:45;;;;;;;;;;;;;;;14.29;100.00;99206.00;5113773;28;20034;-78
2022/09/11 00:41:17;;;;;;;6.22;3.80;;;;;;;14.21;100.00;99202.09;5113415;28;20244;-78
2022/09/11 00:43:58;;;;;;;7.32;4.40;;;;;;;14.25;100.00;99204.53;5112958;28;20012;-78
2022/09/11 00:46:30;;;;;;;;;;;;;;;14.22;100.00;99205.56;5113606;28;20030;-78
2022/09/11 00:48:57;;;;;;;4.22;3.70;;;;;;;14.17;100.00;99191.94;5113292;28;20348;-78
2022/09/11 00:51:28;;;;;;;4.70;3.78;;;;;;;14.15;100.00;99194.66;5113461;28;20420;-78
2022/09/11 00:53:57;;;;;;;7.97;3.83;;;;;;;14.10;100.00;99196.75;5113177;28;20035;-78
2022/09/11 00:56:27;;;;;;;4.53;3.55;;;;;;;14.14;100.00;99203.47;5113017;28;20015;-78
2022/09/11 00:58:54;;;;;;;5.57;3.33;;;;;;;14.12;100.00;99188.81;5112835;28;20106;-78
2022/09/11 01:01:19;;;;;;;3.78;3.42;;;;;;;14.13;100.00;99201.78;5112828;28;20371;-78
2022/09/11 01:03:45;;;;;;;6.40;4.03;;;;;;;14.16;100.00;99203.38;5112816;28;20027;-78
2022/09/11 01:06:11;;;;;;;4.90;3.38;;;;;;;14.19;100.00;99201.34;5112663;28;20122;-78
2022/09/11 01:08:36;;;;;;;3.45;2.83;;;;;;;14.17;100.00;99200.63;5112694;28;20115;-78
2022/09/11 01:11:22;;;;;;;5.20;3.30;;;;;;;14.17;100.00;99199.81;5112808;28;20027;-78
2022/09/11 01:14:26;;;;;;;3.33;2.90;;;;;;;14.16;100.00;99206.00;5111991;28;20047;-78
2022/09/11 01:17:01;;;;;;;2.83;2.63;;;;;;;14.10;100.00;99190.69;5112559;28;20015;-78
2022/09/11 01:19:38;;;;;;;3.00;2.70;;;;;;;14.11;100.00;99195.81;5112703;28;20027;-78
2022/09/11 01:22:10;;;;;;;3.90;2.85;;;;;;;14.15;100.00;99205.13;5112745;28;20078;-78
2022/09/11 01:24:38;;;;;;;4.25;3.10;;;;;;;14.16;100.00;99206.00;5112335;28;20107;-78
2022/09/11 01:27:22;;;;;;;7.80;2.90;;;;;;;14.14;100.00;99203.47;5112685;28;20046;-78
2022/09/11 01:30:02;;;;;;;5.07;2.97;;;;;;;14.09;100.00;99192.47;5112323;28;20019;-78
2022/09/11 01:32:47;;;;;;;3.95;2.83;;;;;;;14.15;100.00;99199.06;5112645;28;20027;-78
2022/09/11 01:35:51;;;;;;;2.80;2.60;;;;;;;14.12;100.00;99199.28;5112122;28;20057;-78
2022/09/11 01:38:33;;;;;;;6.03;2.85;;;;;;;14.01;100.00;99189.53;5112319;28;20137;-78
2022/09/11 01:41:01;;;;;;;3.25;2.63;;;;;;;14.01;100.00;99196.53;5112544;28;20080;-78
2022/09/11 01:43:31;;;;;;;5.47;3.17;;;;;;;14.06;100.00;99205.75;5112540;28;20023;-78
2022/09/11 01:46:01;;;;;;;3.88;3.17;;;;;;;14.06;100.00;99200.53;5112581;28;20081;-78
2022/09/11 01:48:39;;;;;;;3.00;2.72;;;;;;;14.02;100.00;99191.19;5112395;28;20024;-78
2022/09/11 01:51:07;;;;;;;4.88;3.28;;;;;;;14.03;100.00;99189.41;5112298;28;20031;-78
2022/09/11 01:53:37;;;;;;;3.45;2.75;;;;;;;14.06;100.00;99192.66;5112200;28;20467;-78
2022/09/11 01:56:08;;;;;;;4.20;3.25;;;;;;;14.01;100.00;99175.59;5112395;28;20039;-78
2022/09/11 01:58:35;;;;;;;;;;;;;;;14.08;100.00;99188.19;5112459;28;20027;-78
2022/09/11 02:01:08;;;;;;;5.25;3.53;;;;;;;14.01;100.00;99168.59;5112239;28;19904;-78
2022/09/11 02:03:41;;;;;;;8.20;3.10;;;;;;;14.07;100.00;99175.16;5111788;28;20023;-78
2022/09/11 02:06:23;;;;;;;4.25;2.90;;;;;;;14.05;100.00;99174.44;5111907;28;20386;-78
2022/09/11 02:08:53;;;;;;;5.15;3.50;;;;;;;13.94;100.00;99157.69;5112048;28;20361;-78
2022/09/11 02:11:19;;;;;;;4.07;3.28;;;;;;;14.01;100.00;99171.19;5109977;28;20047;-78
2022/09/11 02:13:56;;;;;;;4.22;3.33;;;;;;;14.05;100.00;99179.69;5111789;28;20472;-78
2022/09/11 02:16:38;;;;;;;5.22;3.10;;;;;;;14.04;100.00;99175.41;5112518;28;20024;-78
2022/09/11 02:19:07;;;;;;;3.10;2.80;;;;;;;14.02;100.00;99179.88;5112011;28;20456;-78
2022/09/11 02:21:33;;;;;;;5.82;3.45;;;;;;;13.91;100.00;99164.94;5111996;28;20047;-78
2022/09/11 02:24:00;;;;;;;3.70;3.08;;;;;;;13.89;100.00;99178.09;5112013;28;20573;-78
2022/09/11 02:26:28;;;;;;;5.40;3.15;;;;;;;13.83;100.00;99182.94;5114365;28;20023;-78
2022/09/11 02:28:54;;;;;;;3.45;3.15;;;;;;;13.78;100.00;99175.38;5115729;28;20521;-78
2022/09/11 02:31:21;;;;;;;3.92;3.33;;;;;;;13.70;100.00;99170.66;5116011;28;20023;-78
2022/09/11 02:33:47;;;;;;;7.70;3.97;;;;;;;13.68;100.00;99167.28;5115529;28;20036;-78
2022/09/11 02:36:15;;;;;;;3.60;3.05;;;;;;;13.74;100.00;99173.91;5115801;28;20027;-78
2022/09/11 02:39:00;;;;;;;4.40;3.55;;;;;;;13.67;100.00;99164.78;5115531;28;20152;-78
2022/09/11 02:41:54;;;;;;;4.65;3.35;;;;;;;13.75;100.00;99174.75;5115921;28;20028;-78
2022/09/11 02:44:47;;;;;;;5.00;3.63;;;;;;;13.79;100.00;99171.00;5115641;28;20525;-78
2022/09/11 02:47:26;;;;;;;5.05;3.70;;;;;;;13.68;100.00;99164.69;5115477;28;20497;-78
2022/09/11 02:50:03;;;;;;;4.05;3.58;;;;;;;13.75;100.00;99180.81;5115527;28;20146;-78
2022/09/11 02:52:41;;;;;;;4.78;4.00;;;;;;;13.69;100.00;99174.22;5115468;28;20473;-78
2022/09/11 02:55:38;;;;;;;3.30;3.00;;;;;;;13.67;100.00;99176.09;5115783;28;20334;-78
2022/09/11 02:58:09;;;;;;;5.80;3.60;;;;;;;13.67;100.00;99177.88;5115582;28;20077;-78
2022/09/11 03:00:35;;;;;;;4.25;3.85;;;;;;;13.63;100.00;99164.16;5115442;27;20023;-78
2022/09/11 03:03:00;;;;;;;5.28;3.90;;;;;;;13.61;100.00;99166.06;5115110;28;20026;-78
2022/09/11 03:05:27;;;;;;;5.28;4.13;;;;;;;13.61;100.00;99167.81;5115447;27;20047;-78
2022/09/11 03:07:53;;;;;;;4.85;3.80;;;;;;;13.58;100.00;99173.25;5114931;28;20042;-78
2022/09/11 03:10:18;;;;;;;4.47;4.07;;;;;;;13.51;100.00;99161.53;5115299;28;20024;-78
2022/09/11 03:12:43;;;;;;;4.18;3.60;;;;;;;13.53;100.00;99176.19;5115059;27;20078;-78
2022/09/11 03:15:09;;;;;;;5.18;3.75;;;;;;;13.46;100.00;99175.75;5115240;27;20022;-78
2022/09/11 03:17:35;;;;;;;4.05;3.70;;;;;;;13.42;100.00;99174.25;5115008;28;20031;-78
2022/09/11 03:20:01;;;;;;;3.50;3.20;;;;;;;13.44;100.00;99188.09;5114696;28;20019;-78
2022/09/11 03:22:26;;;;;;;4.00;3.60;;;;;;;13.35;100.00;99180.00;5114790;28;20033;-78
2022/09/11 03:24:51;;;;;;;4.85;3.83;;;;;;;13.38;100.00;99191.09;5114862;28;20027;-78
2022/09/11 03:27:17;;;;;;;4.32;3.70;;;;;;;13.38;100.00;99185.03;5115221;28;20028;-78
2022/09/11 03:29:43;;;;;;;7.18;4.15;;;;;;;13.38;100.00;99188.47;5114484;28;20015;-78
2022/09/11 03:32:09;;;;;;;4.63;3.42;;;;;;;13.37;100.00;99185.97;5114782;28;20031;-78
2022/09/11 03:34:34;;;;;;;5.50;3.95;;;;;;;13.37;100.00;99186.81;5114740;28;20020;-78
2022/09/11 03:36:59;;;;;;;4.70;4.18;;;;;;;13.42;100.00;99204.81;5114354;28;20023;-78
2022/09/11 03:39:25;;;;;;;4.68;3.90;;;;;;;13.37;100.00;99201.69;5114555;28;20103;-78
2022/09/11 03:41:50;;;;;;;7.25;4.30;;;;;;;13.35;100.00;99201.75;5114456;28;20028;-78
2022/09/11 03:44:16;;;;;;;6.95;4.20;;;;;;;13.38;100.00;99198.94;5114561;27;20478;-78
2022/09/11 03:46:42;;;;;;;7.50;4.40;;;;;;;13.38;100.00;99201.56;5114171;27;20452;-78
2022/09/11 03:49:07;;;;;;;7.03;5.10;;;;;;;13.42;100.00;99205.66;5114458;28;20084;-78
2022/09/11 03:51:34;;;;;;;4.75;4.32;;;;;;;13.38;100.00;99209.41;5114619;28;20028;-78
2022/09/11 03:54:00;;;;;;;5.25;4.45;;;;;;;13.36;100.00;99208.69;5111798;28;20138;-78
2022/09/11 03:56:26;;;;;;;6.95;4.93;;;;;;;13.32;100.00;99190.69;5114420;28;20499;-78
2022/09/11 03:59:01;;;;;;;4.88;4.30;;;;;;;13.38;100.00;99200.72;5113926;28;20062;-78
2022/09/11 04:01:27;;;;;;;6.72;4.00;;;;;;;13.44;100.00;99202.94;5114107;28;20054;-78
2022/09/11 04:03:53;;;;;;;9.30;4.82;;;;;;;13.45;100.00;99215.94;5113665;28;20020;-78
2022/09/11 04:06:19;;;;;;;8.40;4.85;;;;;;;13.43;100.00;99202.09;5113960;28;20491;-78
2022/09/11 04:08:45;;;;;;;6.18;4.80;;;;;;;13.51;100.00;99211.22;5113892;28;20058;-78
2022/09/11 04:11:11;;;;;;;5.43;4.50;;;;;;;13.51;100.00;99211.22;5113962;28;20345;-78
2022/09/11 04:13:38;;;;;;;5.10;4.18;;;;;;;13.48;100.00;99204.41;5114063;28;20031;-78
2022/09/11 04:16:07;;;;;;;6.07;5.13;;;;;;;13.48;100.00;99200.03;5113760;28;20106;-78
2022/09/11 04:18:35;;;;;;;4.70;4.30;;;;;;;13.51;100.00;99206.00;5113827;28;20100;-78
2022/09/11 04:21:09;;;;;;;6.32;4.70;;;;;;;13.59;100.00;99214.19;5113395;28;20206;-78
2022/09/11 04:23:35;;;;;;;4.88;4.47;;;;;;;13.61;100.00;99217.53;5113780;28;20094;-78
2022/09/11 04:26:02;;;;;;;8.35;5.30;;;;;;;13.59;100.00;99206.34;5113558;28;20038;-78
2022/09/11 04:28:29;;;;;;;6.75;5.88;;;;;;;13.61;100.00;99212.28;5113672;28;20027;-78
2022/09/11 04:30:56;;;;;;;7.45;5.97;;;;;;;13.62;100.00;99208.75;5113403;28;20016;-78
2022/09/11 04:33:23;;;;;;;5.78;5.10;;;;;;;13.68;100.00;99222.25;5113429;28;20110;-78
2022/09/11 04:35:49;;;;;;;6.18;5.30;;;;;;;13.63;100.00;99213.88;5113386;28;20028;-78
2022/09/11 04:38:14;;;;;;;7.13;5.38;;;;;;;13.69;100.00;99216.09;5113595;28;20083;-78
2022/09/11 04:40:39;;;;;;;5.75;5.03;;;;;;;13.67;100.00;99206.66;5113488;28;20027;-78
2022/09/11 04:43:05;;;;;;;5.90;4.97;;;;;;;13.72;100.00;99208.03;5113158;28;20035;-78
2022/09/11 04:45:32;;;;;;;6.05;5.40;;;;;;;13.77;100.00;99215.56;5113271;27;20015;-78
2022/09/11 04:47:58;;;;;;;6.18;5.35;;;;;;;13.78;100.00;99211.16;5112359;28;20452;-78
2022/09/11 04:50:23;;;;;;;6.22;5.07;;;;;;;13.86;100.00;99219.34;5113308;28;20019;-78
2022/09/11 04:52:48;;;;;;;7.57;5.60;;;;;;;13.87;100.00;99214.03;5113101;28;20031;-78
2022/09/11 04:55:14;;;;;;;6.75;6.15;;;;;;;13.92;100.00;99211.94;5113194;27;20152;-78
2022/09/11 04:57:39;;;;;;;5.97;5.43;;;;;;;13.88;100.00;99204.41;5113051;28;20023;-78
2022/09/11 05:00:05;;;;;;;8.02;5.85;;;;;;;13.96;100.00;99209.94;5112842;28;20444;-78
2022/09/11 05:02:31;;;;;;;8.00;5.70;;;;;;;14.00;100.00;99208.81;5112775;28;20030;-78
2022/09/11 05:04:57;;;;;;;7.32;5.68;;;;;;;13.97;100.00;99199.38;5112963;28;20047;-78
2022/09/11 05:07:24;;;;;;;9.30;6.25;;;;;;;14.04;100.00;99207.66;5113041;28;20090;-78
2022/09/11 05:09:49;;;;;;;8.63;6.38;;;;;;;14.05;100.00;99203.25;5112749;28;20023;-78
2022/09/11 05:12:14;;;;;;;7.65;6.20;;;;;;;14.09;100.00;99204.72;5112829;28;20016;-78
2022/09/11 05:14:40;;;;;;;7.65;6.82;;;;;;;14.17;100.00;99208.50;5113052;28;20028;-78
2022/09/11 05:17:05;;;;;;;10.82;6.65;;;;;;;14.19;100.00;99208.38;5112335;28;20207;-78
2022/09/11 05:19:31;;;;;;;8.70;6.68;;;;;;;14.20;100.00;99208.28;5112624;28;20058;-78
2022/09/11 05:21:56;;;;;;;6.88;6.28;;;;;;;14.21;100.00;99209.13;5112594;27;20024;-78
2022/09/11 05:24:21;;;;;;;9.43;7.00;;;;;;;14.24;100.00;99208.91;5112854;28;20034;-78
2022/09/11 05:26:46;;;;;;;8.95;6.95;;;;;;;14.33;100.00;99213.53;5112543;28;20024;-78
2022/09/11 05:29:14;;;;;;;11.95;8.00;;;;;;;14.30;100.00;99207.66;5112737;28;20015;-78
2022/09/11 05:31:39;;;;;;;7.65;6.55;;;;;;;14.32;100.00;99217.06;5112568;28;20436;-78
2022/09/11 05:34:05;;;;;;;9.75;7.45;;;;;;;14.40;100.00;99217.38;5112231;28;20135;-78
2022/09/11 05:36:32;;;;;;;9.15;8.15;;;;;;;14.31;100.00;99210.16;5112674;28;20069;-78
2022/09/11 05:38:57;;;;;;;9.95;8.00;;;;;;;14.43;100.00;99221.56;5112333;28;20062;-78
2022/09/11 05:41:23;;;;;;;12.50;8.32;;;;;;;14.44;100.00;99224.09;5112469;28;20062;-78
2022/09/11 05:43:48;;;;;;;10.45;9.15;;;;;;;14.46;100.00;99222.22;5112103;28;20030;-78
2022/09/11 05:46:16;;;;;;;10.90;9.10;;;;;;;14.43;100.00;99211.94;5112241;28;20531;-78
2022/09/11 05:48:42;;;;;;;10.73;9.20;;;;;;;14.51;100.00;99232.41;5112535;28;20028;-78
2022/09/11 05:51:15;;;;;;;11.45;9.52;;;;;;;14.50;100.00;99219.41;5109854;28;20038;-78
2022/09/11 05:53:41;;;;;;;10.75;9.73;;;;;;;14.52;100.00;99225.38;5112395;28;20066;-78
2022/09/11 05:56:09;;;;;;;13.75;10.90;;;;;;;14.52;100.00;99222.75;5112066;28;20418;-78
2022/09/11 05:58:34;;;;;;;12.45;11.20;;;;;;;14.58;100.00;99243.28;5112288;28;20027;-78
2022/09/11 06:01:08;;;;;;;12.20;10.85;;;;;;;14.53;100.00;99237.53;5113741;28;20341;-78
2022/09/11 06:03:35;;;;;;;13.63;10.50;;;;;;;14.58;100.00;99241.53;5116634;28;20023;-78
2022/09/11 06:06:08;;;;;;;13.98;11.30;;;;;;;14.52;100.00;99228.81;5116225;28;20050;-78
2022/09/11 06:08:36;;;;;;;15.32;12.57;;;;;;;14.57;100.00;99245.06;5116358;28;20047;-78
2022/09/11 06:11:05;;;;;;;13.07;11.23;;;;;;;14.54;100.00;99242.69;5116009;28;20043;-78
2022/09/11 06:13:33;;;;;;;14.00;11.70;;;;;;;14.53;100.00;99246.22;5116184;28;20026;-78
2022/09/11 06:15:59;;;;;;;14.30;12.80;;;;;;;14.56;100.00;99250.41;5116175;28;20035;-78
2022/09/11 06:18:25;;;;;;;12.80;11.50;;;;;;;14.54;100.00;99241.81;5116169;28;20031;-78
2022/09/11 06:21:18;;;;;;;16.27;13.13;;;;;;;14.61;100.00;99259.63;5115812;28;20035;-78
2022/09/11 06:23:47;;;;;;;14.15;12.15;;;;;;;14.57;100.00;99246.84;5072736;28;20024;-78
2022/09/11 06:26:15;;;;;;;14.27;12.88;;;;;;;14.63;100.00;99262.16;5072701;28;20043;-78
2022/09/11 06:28:41;;;;;;;13.93;12.25;;;;;;;14.57;100.00;99249.47;5072796;28;20036;-78
2022/09/11 06:31:10;;;;;;;14.55;12.80;;;;;;;14.48;100.00;99245.66;5072664;28;20507;-78
2022/09/11 06:33:38;;;;;;;16.83;12.85;;;;;;;14.54;100.00;99253.16;5072887;28;20098;-78
2022/09/11 06:36:10;;;;;;;19.08;11.70;;;;;;;14.55;100.00;99252.22;5072468;28;20028;-78
2022/09/11 06:38:37;;;;;;;15.68;12.30;;;;;;;14.59;100.00;99266.78;5072573;28;20025;-78
2022/09/11 06:41:04;;;;;;;14.60;13.00;;;;;;;14.63;100.00;99275.28;5072322;28;20043;-78
2022/09/11 06:43:30;;;;;;;15.43;12.55;;;;;;;14.63;100.00;99270.03;5072427;28;20466;-78
2022/09/11 06:46:08;;;;;;;15.15;12.48;;;;;;;14.57;100.00;99252.94;5072400;28;20099;-78
2022/09/11 06:48:33;;;;;;;15.23;13.38;;;;;;;14.66;100.00;99260.19;5072523;28;20058;-78
2022/09/11 06:51:06;;;;;;;13.95;12.45;;;;;;;14.77;100.00;99271.69;5072208;28;20098;-78
2022/09/11 06:53:32;;;;;;;14.25;12.18;;;;;;;14.80;100.00;99269.69;5072387;28;20040;-78
2022/09/11 06:56:00;;;;;;;17.70;12.82;;;;;;;14.81;100.00;99267.91;5072104;28;20381;-78
2022/09/11 06:58:28;;;;;;;13.82;12.10;;;;;;;14.79;100.00;99265.41;5072283;28;20025;-78
2022/09/11 07:00:53;;;;;;;13.05;10.93;;;;;;;14.85;100.00;99274.59;5097766;28;20460;-78
2022/09/11 07:03:18;;;;;;;13.98;12.48;;;;;;;14.81;100.00;99271.34;5115128;28;20103;-78
2022/09/11 07:05:48;;;;;;;14.65;12.05;;;;;;;14.89;100.00;99273.44;5114593;28;20039;-78
2022/09/11 07:08:13;;;;;;;14.13;12.60;;;;;;;14.86;100.00;99250.06;5113927;28;20468;-78
2022/09/11 07:10:39;;;;;;;17.08;12.93;;;;;;;15.06;100.00;99265.22;5114113;28;20076;-78
2022/09/11 07:13:05;;;;;;;13.60;12.30;;;;;;;15.22;100.00;99265.81;5113459;28;20019;-78
2022/09/11 07:15:31;;;;;;;14.20;12.10;;;;;;;15.27;100.00;99264.63;5113909;28;20023;-78
2022/09/11 07:17:57;;;;;;;13.38;11.10;;;;;;;15.36;100.00;99269.22;5113500;28;20365;-78
2022/09/11 07:20:22;;;;;;;13.38;11.98;;;;;;;15.42;100.00;99276.63;5113967;27;20023;-78
2022/09/11 07:22:48;;;;;;;15.88;12.10;;;;;;;15.42;100.00;99266.13;5113655;28;20023;-78
2022/09/11 07:25:13;;;;;;;15.57;12.65;;;;;;;15.52;100.00;99279.44;5113933;28;20020;-78
2022/09/11 07:27:40;;;;;;;12.15;10.88;;;;;;;15.51;100.00;99273.38;5113765;28;20408;-78
2022/09/11 07:30:06;;;;;;;14.57;11.68;;;;;;;15.51;100.00;99275.16;5113504;28;20043;-78
2022/09/11 07:32:31;;;;;;;13.73;11.98;;;;;;;15.55;100.00;99279.19;5113425;28;20019;-78
2022/09/11 07:34:57;;;;;;;14.02;12.20;;;;;;;15.55;100.00;99273.94;5113574;28;20016;-78
2022/09/11 07:37:22;;;;;;;11.85;10.65;;;;;;;15.60;100.00;99277.94;5113531;28;20016;-78
2022/09/11 07:39:47;;;;;;;14.05;11.40;;;;;;;15.64;100.00;99279.41;5113620;28;20065;-78
2022/09/11 07:42:13;;;;;;;11.65;10.50;;;;;;;15.58;100.00;99263.22;5113238;28;20064;-78
2022/09/11 07:44:38;;;;;;;12.35;11.15;;;;;;;15.68;100.00;99272.16;5113402;28;20110;-78
2022/09/11 07:47:04;;;;;;;12.40;11.05;;;;;;;15.76;100.00;99269.81;5113140;28;20452;-78
2022/09/11 07:49:29;;;;;;;12.43;10.68;;;;;;;15.82;100.00;99273.75;5113288;28;20030;-78
2022/09/11 07:51:55;;;;;;;13.70;11.35;;;;;;;15.87;100.00;99267.19;5113265;28;20109;-78
2022/09/11 07:54:21;;;;;;;16.05;11.10;;;;;;;15.95;100.00;99275.34;5113429;28;20028;-78
2022/09/11 07:56:47;;;;;;;12.52;11.15;;;;;;;15.96;100.00;99278.81;5113293;28;20046;-78
2022/09/11 07:59:13;;;;;;;13.70;11.13;;;;;;;16.01;100.00;99270.59;5113023;28;20148;-78
2022/09/11 08:01:38;;;;;;;14.70;10.90;;;;;;;16.06;100.00;99269.31;5113237;28;20485;-78
2022/09/11 08:04:06;;;;;;;12.07;10.77;;;;;;;16.13;100.00;99283.63;5072645;28;1134940;-78
2022/09/11 08:06:35;;;;;;;12.77;11.40;;;;;;;16.11;100.00;99272.41;5114321;28;20036;-78
2022/09/11 08:09:07;;;;;;;16.80;12.50;;;;;;;16.14;100.00;99284.50;5113857;28;20042;-78
2022/09/11 08:11:37;;;;;;;12.40;11.20;;;;;;;16.14;100.00;99292.38;5114018;28;20365;-78
2022/09/11 08:14:03;;;;;;;12.13;10.88;;;;;;;16.04;100.00;99276.44;5113593;28;20027;-79
2022/09/11 08:16:29;;;;;;;12.90;11.48;;;;;;;16.20;100.00;99291.91;5113703;28;20027;-79
2022/09/11 08:18:55;;;;;;;12.10;10.90;;;;;;;16.21;100.00;99296.19;5114254;28;20034;-78
2022/09/11 08:21:22;;;;;;;18.55;12.80;;;;;;;16.17;100.00;99294.75;5113886;28;20026;-79
2022/09/11 08:23:48;;;;;;;12.88;11.60;;;;;;;16.17;100.00;99305.25;5112925;28;20337;-79
2022/09/11 08:26:18;;;;;;;13.38;11.65;;;;;;;16.18;100.00;99302.53;5113668;28;20102;-78
2022/09/11 08:28:44;;;;;;;13.82;12.43;;;;;;;16.15;100.00;99313.25;5113272;28;20027;-78
2022/09/11 08:31:11;;;;;;;14.38;12.57;;;;;;;16.05;100.00;99299.13;5113568;28;20011;-79
2022/09/11 08:33:37;;;;;;;14.10;12.65;;;;;;;16.20;100.00;99312.91;5113662;28;20107;-79
2022/09/11 08:36:08;;;;;;;18.92;12.68;;;;;;;16.38;100.00;99318.56;5113347;28;20521;-79
2022/09/11 08:38:35;;;;;;;14.40;12.35;;;;;;;16.50;100.00;99320.28;5113475;28;20050;-79
2022/09/11 08:41:12;;;;;;;14.75;13.25;;;;;;;16.61;100.00;99311.56;5113099;28;20020;-79
2022/09/11 08:43:49;;;;;;;15.68;13.73;;;;;;;16.59;100.00;99309.03;5113163;28;20482;-79
2022/09/11 08:46:16;;;;;;;15.23;12.85;;;;;;;16.52;100.00;99307.84;5113075;28;20368;-79
2022/09/11 08:48:51;;;;;;;14.80;12.73;;;;;;;16.68;100.00;99313.59;5113585;28;20031;-79
2022/09/11 08:51:17;;;;;;;14.07;12.25;;;;;;;16.93;100.00;99324.88;5112845;27;20468;-79
2022/09/11 08:53:44;;;;;;;14.95;12.43;;;;;;;17.00;100.00;99322.63;5113099;28;20102;-79
2022/09/11 08:56:16;;;;;;;13.60;12.30;;;;;;;16.86;100.00;99315.81;5112975;27;20341;-79
2022/09/11 08:59:05;;;;;;;13.52;12.13;;;;;;;16.82;100.00;99323.09;5112990;28;20433;-79
2022/09/11 09:01:54;;;;;;;13.23;11.82;;;;;;;16.77;100.00;99325.25;5113100;28;20023;-79
2022/09/11 09:04:49;;;;;;;13.77;12.48;;;;;;;16.80;100.00;99329.41;5112547;28;20083;-79
2022/09/11 09:07:47;;;;;;;13.73;12.43;;;;;;;16.73;100.00;99331.69;5112783;28;20018;-79
2022/09/11 09:10:14;;;;;;;13.95;12.65;;;;;;;16.74;100.00;99333.38;5069982;28;20036;-79
2022/09/11 09:12:52;;;;;;;14.30;12.88;;;;;;;16.69;100.00;99325.81;5052815;28;20029;-79
2022/09/11 09:15:24;;;;;;;12.32;11.13;;;;;;;16.66;100.00;99333.09;5069932;28;20029;-79
2022/09/11 09:17:55;;;;;;;12.85;11.75;;;;;;;16.58;100.00;99333.66;5069841;28;20403;-79
2022/09/11 09:20:28;;;;;;;10.70;9.68;;;;;;;16.57;100.00;99326.75;5069518;28;20186;-79
2022/09/11 09:23:01;;;;;;;11.07;10.07;;;;;;;16.85;100.00;99335.16;5069609;28;20020;-79
2022/09/11 09:25:27;;;;;;;11.05;9.55;;;;;;;17.10;100.00;99327.00;5069506;28;20043;-79
2022/09/11 09:28:19;;;;;;;9.93;9.02;;;;;;;17.50;100.00;99329.13;5069571;28;20052;-79
2022/09/11 09:31:13;;;;;;;12.13;8.35;;;;;;;17.95;100.00;99319.31;5069642;28;20112;-79
2022/09/11 09:33:53;;;;;;;9.13;8.23;;;;;;;18.27;100.00;99331.59;4990180;28;20038;-79
2022/09/11 09:36:30;;;;;;;8.88;7.90;;;;;;;18.55;100.00;99324.88;4989825;28;20034;-79
2022/09/11 09:38:57;;;;;;;8.40;7.60;;;;;;;18.51;100.00;99319.97;4990065;28;20109;-79
2022/09/11 09:41:37;;;;;;;11.07;9.98;;;;;;;18.28;100.00;99328.00;4990015;28;20062;-79
2022/09/11 09:44:24;;;;;;;10.82;9.73;;;;;;;17.95;100.00;99334.31;4989870;28;20117;-79
2022/09/11 09:46:52;;;;;;;11.63;10.52;;;;;;;17.71;100.00;99335.28;5026467;28;20042;-79
2022/09/11 09:49:23;;;;;;;13.15;11.77;;;;;;;17.58;100.00;99339.88;5029181;28;20025;-79
2022/09/11 09:51:50;;;;;;;14.13;12.45;;;;;;;17.47;100.00;99332.00;5029285;28;20045;-79
2022/09/11 09:54:19;;;;;;;14.60;13.10;;;;;;;17.42;100.00;99340.28;5029074;28;20025;-79
2022/09/11 09:56:54;;;;;;;15.13;13.55;;;;;;;17.40;100.00;99338.72;5029328;28;20156;-79
2022/09/11 09:59:34;;;;;;;15.85;13.60;;;;;;;17.44;100.00;99330.47;5028989;28;20081;-79
2022/09/11 10:01:59;;;;;;;15.45;13.82;;;;;;;17.53;100.00;99341.19;5029372;28;20052;-79
2022/09/11 10:04:27;;;;;;;14.45;13.02;;;;;;;17.59;100.00;99332.81;5028745;28;20491;-79
2022/09/11 10:07:10;;;;;;;14.13;12.57;;;;;;;17.61;100.00;99310.69;5029282;28;20220;-79
2022/09/11 10:09:44;;;;;;;14.30;12.90;;;;;;;17.78;100.00;99319.88;5042955;28;20055;-79
2022/09/11 10:12:18;;;;;;;12.90;11.52;;;;;;;17.99;100.00;99319.88;5111920;28;20445;-79
2022/09/11 10:14:51;;;;;;;13.80;10.85;;;;;;;18.23;100.00;99326.72;5127003;28;20044;-79
2022/09/11 10:17:30;;;;;;;11.88;10.68;;;;;;;18.48;100.00;99325.50;5111797;28;20016;-79
2022/09/11 10:20:17;;;;;;;11.45;10.15;;;;;;;18.71;100.00;99337.63;5112336;28;20020;-79
2022/09/11 10:22:44;;;;;;;10.18;8.60;;;;;;;18.82;100.00;99336.69;5112149;28;20027;-79
2022/09/11 10:25:25;;;;;;;8.45;6.68;;;;;;;19.01;99.70;99333.31;5111760;28;20035;-79
2022/09/11 10:28:04;;;;;;;6.55;5.95;;;;;;;19.22;98.54;99342.00;5111842;28;20015;-79
2022/09/11 10:30:36;;;;;;;6.15;5.50;;;;;;;19.22;97.42;99335.91;5112189;28;20050;-79
2022/09/11 10:33:05;;;;;;;5.90;5.32;;;;;;;19.01;97.78;99344.72;5112052;28;20015;-79
2022/09/11 10:35:34;;;;;;;5.47;4.97;;;;;;;18.69;98.76;99337.72;5112102;28;20114;-79
2022/09/11 10:38:10;;;;;;;5.45;4.95;;;;;;;18.25;99.59;99338.81;5111934;28;20051;-79
2022/09/11 10:40:38;;;;;;;6.82;5.35;;;;;;;18.07;99.90;99354.34;5111881;28;20418;-79
2022/09/11 10:43:03;;;;;;;5.20;4.70;;;;;;;18.06;100.00;99347.41;5111854;28;20020;-79
2022/09/11 10:45:30;;;;;;;5.43;4.93;;;;;;;18.17;100.00;99354.44;5111545;28;20027;-79
2022/09/11 10:48:13;;;;;;;5.90;4.95;;;;;;;17.94;100.00;99343.13;5114937;28;20027;-79
2022/09/11 10:50:38;;;;;;;5.50;5.00;;;;;;;17.74;100.00;99357.97;5115541;28;20032;-79
2022/09/11 10:53:21;;;;;;;6.85;5.03;;;;;;;17.65;100.00;99359.47;5115664;28;20042;-79
2022/09/11 10:56:09;;;;;;;6.10;5.60;;;;;;;17.68;100.00;99356.59;5115561;28;20532;-79
2022/09/11 10:58:40;;;;;;;6.47;5.88;;;;;;;17.83;100.00;99353.75;5115337;28;20027;-78
2022/09/11 11:01:06;;;;;;;6.30;5.70;;;;;;;18.01;100.00;99364.56;5115512;28;20027;-78
2022/09/11 11:03:31;;;;;;;6.68;5.97;;;;;;;17.97;100.00;99352.59;5115174;28;20027;-80
2022/09/11 11:05:57;;;;;;;6.20;5.65;;;;;;;18.09;100.00;99356.88;5115067;28;20040;-79
2022/09/11 11:08:58;;;;;;;7.78;6.10;;;;;;;18.15;100.00;99359.00;5115165;28;20401;-79
2022/09/11 11:11:32;;;;;;;6.57;5.95;;;;;;;18.13;100.00;99363.56;5114728;27;20084;-79
2022/09/11 11:14:19;;;;;;;5.97;5.40;;;;;;;18.20;100.00;99364.72;5115143;28;20367;-79
2022/09/11 11:17:08;;;;;;;7.68;5.82;;;;;;;18.29;100.00;99366.59;5115259;28;20470;-79
2022/09/11 11:20:02;;;;;;;8.48;6.47;;;;;;;18.27;100.00;99368.53;5115033;28;20149;-79
2022/09/11 11:22:58;;;;;;;8.65;6.65;;;;;;;18.16;99.52;99374.69;5105395;28;20036;-80
2022/09/11 11:25:43;;;;;;;8.38;6.70;;;;;;;17.90;99.38;99365.44;5094592;28;20028;-80
2022/09/11 11:28:22;;;;;;;7.72;6.55;;;;;;;17.75;100.00;99372.78;5094430;28;20111;-79
2022/09/11 11:31:05;;;;;;;8.20;6.25;;;;;;;17.69;100.00;99371.44;5094552;28;20028;-79
2022/09/11 11:33:49;;;;;;;7.07;6.38;;;;;;;17.61;100.00;99371.25;5094110;28;20031;-79
2022/09/11 11:36:33;;;;;;;7.30;6.18;;;;;;;17.51;100.00;99364.19;5093857;28;20362;-79